sensor_id;sensor_type;location;lat;lon;timestamp;P1;durP1;ratioP1;P2;durP2;ratioP2
69779;SDS011;57052;55.602;38.096;2022-07-24T00:01:33;27.55;;;17.45;;
69779;SDS011;57052;55.602;38.096;2022-07-24T00:04:02;27.52;;;17.73;;
69779;SDS011;57052;55.602;38.096;2022-07-24T00:06:28;27.85;;;18.05;;
69779;SDS011;57052;55.602;38.096;2022-07-24T00:08:54;28.83;;;17.65;;
69779;SDS011;57052;55.602;38.096;2022-07-24T00:11:20;33.45;;;18.38;;
69779;SDS011;57052;55.602;38.096;2022-07-24T00:13:45;28.52;;;18.00;;
69779;SDS011;57052;55.602;38.096;2022-07-24T00:16:11;29.02;;;18.65;;
69779;SDS011;57052;55.602;38.096;2022-07-24T00:18:37;26.05;;;17.50;;
69779;SDS011;57052;55.602;38.096;2022-07-24T00:21:02;28.58;;;17.42;;
69779;SDS011;57052;55.602;38.096;2022-07-24T00:23:28;30.45;;;17.30;;
69779;SDS011;57052;55.602;38.096;2022-07-24T00:25:54;27.65;;;16.95;;
69779;SDS011;57052;55.602;38.096;2022-07-24T00:28:20;26.58;;;17.20;;
69779;SDS011;57052;55.602;38.096;2022-07-24T00:30:45;24.10;;;17.10;;
69779;SDS011;57052;55.602;38.096;2022-07-24T00:33:11;27.23;;;17.48;;
69779;SDS011;57052;55.602;38.096;2022-07-24T00:35:37;24.42;;;17.23;;
69779;SDS011;57052;55.602;38.096;2022-07-24T00:38:03;28.65;;;18.48;;
69779;SDS011;57052;55.602;38.096;2022-07-24T00:40:29;27.58;;;17.25;;
69779;SDS011;57052;55.602;38.096;2022-07-24T00:42:55;31.15;;;17.92;;
69779;SDS011;57052;55.602;38.096;2022-07-24T00:45:22;32.58;;;18.02;;
69779;SDS011;57052;55.602;38.096;2022-07-24T00:47:49;31.77;;;18.63;;
69779;SDS011;57052;55.602;38.096;2022-07-24T00:50:16;30.30;;;18.48;;
69779;SDS011;57052;55.602;38.096;2022-07-24T00:52:42;30.25;;;18.63;;
69779;SDS011;57052;55.602;38.096;2022-07-24T00:55:09;27.25;;;18.38;;
69779;SDS011;57052;55.602;38.096;2022-07-24T00:57:36;29.45;;;18.50;;
69779;SDS011;57052;55.602;38.096;2022-07-24T01:00:09;32.13;;;18.45;;
69779;SDS011;57052;55.602;38.096;2022-07-24T01:02:38;28.13;;;17.88;;
69779;SDS011;57052;55.602;38.096;2022-07-24T01:05:04;32.50;;;18.23;;
69779;SDS011;57052;55.602;38.096;2022-07-24T01:07:30;26.55;;;18.70;;
69779;SDS011;57052;55.602;38.096;2022-07-24T01:09:56;31.50;;;18.00;;
69779;SDS011;57052;55.602;38.096;2022-07-24T01:12:22;33.50;;;18.98;;
69779;SDS011;57052;55.602;38.096;2022-07-24T01:14:48;29.33;;;19.75;;
69779;SDS011;57052;55.602;38.096;2022-07-24T01:17:14;27.27;;;18.65;;
69779;SDS011;57052;55.602;38.096;2022-07-24T01:19:39;27.90;;;18.13;;
69779;SDS011;57052;55.602;38.096;2022-07-24T01:22:05;34.55;;;18.63;;
69779;SDS011;57052;55.602;38.096;2022-07-24T01:24:31;32.25;;;18.75;;
69779;SDS011;57052;55.602;38.096;2022-07-24T01:26:59;35.85;;;18.85;;
69779;SDS011;57052;55.602;38.096;2022-07-24T01:29:25;30.25;;;19.40;;
69779;SDS011;57052;55.602;38.096;2022-07-24T01:31:51;32.80;;;19.35;;
69779;SDS011;57052;55.602;38.096;2022-07-24T01:34:16;29.25;;;18.45;;
69779;SDS011;57052;55.602;38.096;2022-07-24T01:36:42;27.92;;;18.60;;
69779;SDS011;57052;55.602;38.096;2022-07-24T01:39:07;30.98;;;18.60;;
69779;SDS011;57052;55.602;38.096;2022-07-24T01:41:33;33.47;;;19.17;;
69779;SDS011;57052;55.602;38.096;2022-07-24T01:43:59;30.95;;;18.95;;
69779;SDS011;57052;55.602;38.096;2022-07-24T01:46:25;35.22;;;20.10;;
69779;SDS011;57052;55.602;38.096;2022-07-24T01:48:51;32.72;;;19.85;;
69779;SDS011;57052;55.602;38.096;2022-07-24T01:51:16;28.63;;;20.08;;
69779;SDS011;57052;55.602;38.096;2022-07-24T01:53:42;33.83;;;20.10;;
69779;SDS011;57052;55.602;38.096;2022-07-24T01:56:08;32.88;;;19.83;;
69779;SDS011;57052;55.602;38.096;2022-07-24T01:58:33;30.40;;;19.77;;
69779;SDS011;57052;55.602;38.096;2022-07-24T02:00:59;30.13;;;18.75;;
69779;SDS011;57052;55.602;38.096;2022-07-24T02:03:25;34.22;;;19.17;;
69779;SDS011;57052;55.602;38.096;2022-07-24T02:05:50;30.42;;;19.75;;
69779;SDS011;57052;55.602;38.096;2022-07-24T02:08:16;30.85;;;19.45;;
69779;SDS011;57052;55.602;38.096;2022-07-24T02:10:42;30.17;;;19.42;;
69779;SDS011;57052;55.602;38.096;2022-07-24T02:13:07;33.92;;;19.98;;
69779;SDS011;57052;55.602;38.096;2022-07-24T02:15:33;31.63;;;19.38;;
69779;SDS011;57052;55.602;38.096;2022-07-24T02:18:00;32.13;;;20.42;;
69779;SDS011;57052;55.602;38.096;2022-07-24T02:20:27;36.90;;;20.27;;
69779;SDS011;57052;55.602;38.096;2022-07-24T02:22:53;32.60;;;19.52;;
69779;SDS011;57052;55.602;38.096;2022-07-24T02:25:19;30.67;;;18.52;;
69779;SDS011;57052;55.602;38.096;2022-07-24T02:27:46;31.45;;;19.33;;
69779;SDS011;57052;55.602;38.096;2022-07-24T02:30:16;36.88;;;19.25;;
69779;SDS011;57052;55.602;38.096;2022-07-24T02:32:44;31.98;;;18.98;;
69779;SDS011;57052;55.602;38.096;2022-07-24T02:35:10;29.60;;;18.38;;
69779;SDS011;57052;55.602;38.096;2022-07-24T02:37:36;31.40;;;19.65;;
69779;SDS011;57052;55.602;38.096;2022-07-24T02:40:03;27.38;;;18.50;;
69779;SDS011;57052;55.602;38.096;2022-07-24T02:42:30;32.60;;;18.02;;
69779;SDS011;57052;55.602;38.096;2022-07-24T02:44:56;28.65;;;18.02;;
69779;SDS011;57052;55.602;38.096;2022-07-24T02:47:21;29.50;;;18.75;;
69779;SDS011;57052;55.602;38.096;2022-07-24T02:49:47;29.23;;;17.63;;
69779;SDS011;57052;55.602;38.096;2022-07-24T02:52:12;29.20;;;17.92;;
69779;SDS011;57052;55.602;38.096;2022-07-24T02:54:38;30.95;;;19.30;;
69779;SDS011;57052;55.602;38.096;2022-07-24T02:57:03;33.70;;;18.35;;
69779;SDS011;57052;55.602;38.096;2022-07-24T02:59:29;27.65;;;17.77;;
69779;SDS011;57052;55.602;38.096;2022-07-24T03:01:55;30.52;;;17.33;;
69779;SDS011;57052;55.602;38.096;2022-07-24T03:04:20;28.80;;;18.50;;
69779;SDS011;57052;55.602;38.096;2022-07-24T03:06:46;30.02;;;18.23;;
69779;SDS011;57052;55.602;38.096;2022-07-24T03:09:11;31.25;;;18.02;;
69779;SDS011;57052;55.602;38.096;2022-07-24T03:11:37;24.65;;;17.17;;
69779;SDS011;57052;55.602;38.096;2022-07-24T03:14:02;32.40;;;18.50;;
69779;SDS011;57052;55.602;38.096;2022-07-24T03:16:28;30.42;;;18.67;;
69779;SDS011;57052;55.602;38.096;2022-07-24T03:18:53;27.95;;;18.55;;
69779;SDS011;57052;55.602;38.096;2022-07-24T03:21:19;32.78;;;18.45;;
69779;SDS011;57052;55.602;38.096;2022-07-24T03:23:44;37.08;;;19.77;;
69779;SDS011;57052;55.602;38.096;2022-07-24T03:26:10;31.67;;;19.15;;
69779;SDS011;57052;55.602;38.096;2022-07-24T03:28:36;34.33;;;18.95;;
69779;SDS011;57052;55.602;38.096;2022-07-24T03:31:01;36.88;;;20.20;;
69779;SDS011;57052;55.602;38.096;2022-07-24T03:33:28;33.88;;;20.27;;
69779;SDS011;57052;55.602;38.096;2022-07-24T03:35:54;34.15;;;20.58;;
69779;SDS011;57052;55.602;38.096;2022-07-24T03:38:20;34.28;;;21.00;;
69779;SDS011;57052;55.602;38.096;2022-07-24T03:40:46;35.53;;;22.02;;
69779;SDS011;57052;55.602;38.096;2022-07-24T03:43:11;37.55;;;21.15;;
69779;SDS011;57052;55.602;38.096;2022-07-24T03:45:37;31.02;;;19.55;;
69779;SDS011;57052;55.602;38.096;2022-07-24T03:48:03;32.03;;;20.55;;
69779;SDS011;57052;55.602;38.096;2022-07-24T03:50:29;33.38;;;20.50;;
69779;SDS011;57052;55.602;38.096;2022-07-24T03:52:55;36.58;;;19.40;;
69779;SDS011;57052;55.602;38.096;2022-07-24T03:55:20;42.88;;;22.05;;
69779;SDS011;57052;55.602;38.096;2022-07-24T03:57:46;33.78;;;21.30;;
69779;SDS011;57052;55.602;38.096;2022-07-24T04:00:12;35.72;;;21.73;;
69779;SDS011;57052;55.602;38.096;2022-07-24T04:02:38;38.30;;;22.65;;
69779;SDS011;57052;55.602;38.096;2022-07-24T04:05:04;37.65;;;21.58;;
69779;SDS011;57052;55.602;38.096;2022-07-24T04:07:34;36.33;;;20.98;;
69779;SDS011;57052;55.602;38.096;2022-07-24T04:10:03;42.95;;;21.98;;
69779;SDS011;57052;55.602;38.096;2022-07-24T04:12:31;36.13;;;21.27;;
69779;SDS011;57052;55.602;38.096;2022-07-24T04:14:56;38.50;;;21.20;;
69779;SDS011;57052;55.602;38.096;2022-07-24T04:17:22;38.55;;;21.50;;
69779;SDS011;57052;55.602;38.096;2022-07-24T04:19:48;36.95;;;21.52;;
69779;SDS011;57052;55.602;38.096;2022-07-24T04:22:13;40.17;;;22.38;;
69779;SDS011;57052;55.602;38.096;2022-07-24T04:24:39;35.47;;;21.33;;
69779;SDS011;57052;55.602;38.096;2022-07-24T04:27:04;41.25;;;21.95;;
69779;SDS011;57052;55.602;38.096;2022-07-24T04:29:30;32.70;;;20.10;;
69779;SDS011;57052;55.602;38.096;2022-07-24T04:31:56;31.33;;;20.63;;
69779;SDS011;57052;55.602;38.096;2022-07-24T04:34:22;32.08;;;19.63;;
69779;SDS011;57052;55.602;38.096;2022-07-24T04:36:47;32.10;;;20.10;;
69779;SDS011;57052;55.602;38.096;2022-07-24T04:39:13;41.13;;;21.02;;
69779;SDS011;57052;55.602;38.096;2022-07-24T04:41:39;33.20;;;19.70;;
69779;SDS011;57052;55.602;38.096;2022-07-24T04:44:05;37.15;;;20.40;;
69779;SDS011;57052;55.602;38.096;2022-07-24T04:46:30;34.70;;;19.67;;
69779;SDS011;57052;55.602;38.096;2022-07-24T04:48:56;31.20;;;19.73;;
69779;SDS011;57052;55.602;38.096;2022-07-24T04:51:22;28.25;;;18.08;;
69779;SDS011;57052;55.602;38.096;2022-07-24T04:53:47;33.78;;;18.85;;
69779;SDS011;57052;55.602;38.096;2022-07-24T04:56:13;35.22;;;18.67;;
69779;SDS011;57052;55.602;38.096;2022-07-24T04:58:39;36.58;;;19.23;;
69779;SDS011;57052;55.602;38.096;2022-07-24T05:01:05;31.83;;;18.17;;
69779;SDS011;57052;55.602;38.096;2022-07-24T05:03:30;30.85;;;17.45;;
69779;SDS011;57052;55.602;38.096;2022-07-24T05:05:56;33.58;;;18.65;;
69779;SDS011;57052;55.602;38.096;2022-07-24T05:08:21;26.17;;;17.73;;
69779;SDS011;57052;55.602;38.096;2022-07-24T05:10:47;28.77;;;17.50;;
69779;SDS011;57052;55.602;38.096;2022-07-24T05:13:13;28.98;;;17.13;;
69779;SDS011;57052;55.602;38.096;2022-07-24T05:15:38;29.33;;;16.92;;
69779;SDS011;57052;55.602;38.096;2022-07-24T05:18:04;27.33;;;16.48;;
69779;SDS011;57052;55.602;38.096;2022-07-24T05:20:29;27.00;;;15.50;;
69779;SDS011;57052;55.602;38.096;2022-07-24T05:22:55;28.73;;;16.55;;
69779;SDS011;57052;55.602;38.096;2022-07-24T05:25:20;26.30;;;15.48;;
69779;SDS011;57052;55.602;38.096;2022-07-24T05:27:46;28.42;;;15.90;;
69779;SDS011;57052;55.602;38.096;2022-07-24T05:30:12;19.50;;;13.05;;
69779;SDS011;57052;55.602;38.096;2022-07-24T05:32:38;17.00;;;10.48;;
69779;SDS011;57052;55.602;38.096;2022-07-24T05:35:03;12.10;;;8.27;;
69779;SDS011;57052;55.602;38.096;2022-07-24T05:37:29;11.02;;;8.20;;
69779;SDS011;57052;55.602;38.096;2022-07-24T05:39:55;15.98;;;10.52;;
69779;SDS011;57052;55.602;38.096;2022-07-24T05:42:21;21.80;;;12.05;;
69779;SDS011;57052;55.602;38.096;2022-07-24T05:44:46;22.45;;;13.88;;
69779;SDS011;57052;55.602;38.096;2022-07-24T05:47:12;23.15;;;13.65;;
69779;SDS011;57052;55.602;38.096;2022-07-24T05:49:37;23.65;;;13.23;;
69779;SDS011;57052;55.602;38.096;2022-07-24T05:52:03;16.92;;;11.93;;
69779;SDS011;57052;55.602;38.096;2022-07-24T05:54:29;18.98;;;12.68;;
69779;SDS011;57052;55.602;38.096;2022-07-24T05:56:54;20.05;;;12.90;;
69779;SDS011;57052;55.602;38.096;2022-07-24T05:59:20;22.17;;;12.80;;
69779;SDS011;57052;55.602;38.096;2022-07-24T06:01:46;23.23;;;13.02;;
69779;SDS011;57052;55.602;38.096;2022-07-24T06:04:31;24.04;;;13.33;;
69779;SDS011;57052;55.602;38.096;2022-07-24T06:06:57;19.58;;;13.55;;
69779;SDS011;57052;55.602;38.096;2022-07-24T06:09:22;19.35;;;12.07;;
69779;SDS011;57052;55.602;38.096;2022-07-24T06:11:48;17.52;;;11.75;;
69779;SDS011;57052;55.602;38.096;2022-07-24T06:14:13;17.33;;;11.38;;
69779;SDS011;57052;55.602;38.096;2022-07-24T06:16:39;14.73;;;10.30;;
69779;SDS011;57052;55.602;38.096;2022-07-24T06:19:04;23.67;;;12.55;;
69779;SDS011;57052;55.602;38.096;2022-07-24T06:21:30;21.58;;;11.10;;
69779;SDS011;57052;55.602;38.096;2022-07-24T06:23:56;16.40;;;10.77;;
69779;SDS011;57052;55.602;38.096;2022-07-24T06:26:21;22.75;;;11.30;;
69779;SDS011;57052;55.602;38.096;2022-07-24T06:28:47;14.85;;;8.95;;
69779;SDS011;57052;55.602;38.096;2022-07-24T06:31:12;15.05;;;8.73;;
69779;SDS011;57052;55.602;38.096;2022-07-24T06:33:38;11.98;;;7.30;;
69779;SDS011;57052;55.602;38.096;2022-07-24T06:36:03;11.68;;;6.32;;
69779;SDS011;57052;55.602;38.096;2022-07-24T06:38:29;9.55;;;6.80;;
69779;SDS011;57052;55.602;38.096;2022-07-24T06:40:55;8.93;;;6.63;;
69779;SDS011;57052;55.602;38.096;2022-07-24T06:43:20;9.68;;;6.05;;
69779;SDS011;57052;55.602;38.096;2022-07-24T06:45:46;11.63;;;6.97;;
69779;SDS011;57052;55.602;38.096;2022-07-24T06:48:12;9.40;;;6.57;;
69779;SDS011;57052;55.602;38.096;2022-07-24T06:50:37;10.38;;;6.90;;
69779;SDS011;57052;55.602;38.096;2022-07-24T06:53:03;8.07;;;5.57;;
69779;SDS011;57052;55.602;38.096;2022-07-24T06:55:28;7.25;;;5.82;;
69779;SDS011;57052;55.602;38.096;2022-07-24T06:57:54;9.75;;;6.22;;
69779;SDS011;57052;55.602;38.096;2022-07-24T07:00:19;10.82;;;5.97;;
69779;SDS011;57052;55.602;38.096;2022-07-24T07:02:45;10.27;;;6.00;;
69779;SDS011;57052;55.602;38.096;2022-07-24T07:05:11;10.45;;;6.78;;
69779;SDS011;57052;55.602;38.096;2022-07-24T07:07:36;10.45;;;5.90;;
69779;SDS011;57052;55.602;38.096;2022-07-24T07:10:03;15.70;;;7.88;;
69779;SDS011;57052;55.602;38.096;2022-07-24T07:12:30;12.10;;;6.95;;
69779;SDS011;57052;55.602;38.096;2022-07-24T07:14:56;11.85;;;6.70;;
69779;SDS011;57052;55.602;38.096;2022-07-24T07:17:23;8.85;;;6.20;;
69779;SDS011;57052;55.602;38.096;2022-07-24T07:19:49;9.13;;;6.22;;
69779;SDS011;57052;55.602;38.096;2022-07-24T07:22:14;11.00;;;6.43;;
69779;SDS011;57052;55.602;38.096;2022-07-24T07:24:40;9.45;;;6.45;;
69779;SDS011;57052;55.602;38.096;2022-07-24T07:27:05;8.23;;;5.95;;
69779;SDS011;57052;55.602;38.096;2022-07-24T07:29:31;9.27;;;5.88;;
69779;SDS011;57052;55.602;38.096;2022-07-24T07:31:57;13.57;;;6.70;;
69779;SDS011;57052;55.602;38.096;2022-07-24T07:34:23;10.00;;;6.30;;
69779;SDS011;57052;55.602;38.096;2022-07-24T07:36:48;9.85;;;6.30;;
69779;SDS011;57052;55.602;38.096;2022-07-24T07:39:14;12.63;;;6.78;;
69779;SDS011;57052;55.602;38.096;2022-07-24T07:41:39;8.88;;;5.70;;
69779;SDS011;57052;55.602;38.096;2022-07-24T07:44:05;9.77;;;4.97;;
69779;SDS011;57052;55.602;38.096;2022-07-24T07:46:31;8.00;;;5.03;;
69779;SDS011;57052;55.602;38.096;2022-07-24T07:48:56;5.80;;;4.60;;
69779;SDS011;57052;55.602;38.096;2022-07-24T07:51:22;9.40;;;4.95;;
69779;SDS011;57052;55.602;38.096;2022-07-24T07:53:47;6.75;;;4.75;;
69779;SDS011;57052;55.602;38.096;2022-07-24T07:56:14;6.38;;;4.55;;
69779;SDS011;57052;55.602;38.096;2022-07-24T07:58:40;7.70;;;4.93;;
69779;SDS011;57052;55.602;38.096;2022-07-24T08:01:05;9.48;;;5.25;;
69779;SDS011;57052;55.602;38.096;2022-07-24T08:03:31;9.55;;;5.93;;
69779;SDS011;57052;55.602;38.096;2022-07-24T08:05:56;10.43;;;6.03;;
69779;SDS011;57052;55.602;38.096;2022-07-24T08:08:22;10.57;;;5.82;;
69779;SDS011;57052;55.602;38.096;2022-07-24T08:10:48;6.78;;;5.47;;
69779;SDS011;57052;55.602;38.096;2022-07-24T08:13:13;6.65;;;4.95;;
69779;SDS011;57052;55.602;38.096;2022-07-24T08:15:40;9.70;;;5.15;;
69779;SDS011;57052;55.602;38.096;2022-07-24T08:18:06;7.13;;;5.10;;
69779;SDS011;57052;55.602;38.096;2022-07-24T08:20:32;6.55;;;4.65;;
69779;SDS011;57052;55.602;38.096;2022-07-24T08:22:58;7.00;;;5.00;;
69779;SDS011;57052;55.602;38.096;2022-07-24T08:25:23;7.35;;;4.68;;
69779;SDS011;57052;55.602;38.096;2022-07-24T08:27:49;10.32;;;4.63;;
69779;SDS011;57052;55.602;38.096;2022-07-24T08:30:14;7.45;;;4.50;;
69779;SDS011;57052;55.602;38.096;2022-07-24T08:32:40;8.50;;;4.53;;
69779;SDS011;57052;55.602;38.096;2022-07-24T08:35:06;6.75;;;4.97;;
69779;SDS011;57052;55.602;38.096;2022-07-24T08:37:38;8.40;;;5.10;;
69779;SDS011;57052;55.602;38.096;2022-07-24T08:40:06;7.55;;;5.32;;
69779;SDS011;57052;55.602;38.096;2022-07-24T08:42:34;7.28;;;5.50;;
69779;SDS011;57052;55.602;38.096;2022-07-24T08:45:00;7.25;;;4.65;;
69779;SDS011;57052;55.602;38.096;2022-07-24T08:47:26;6.78;;;4.70;;
69779;SDS011;57052;55.602;38.096;2022-07-24T08:49:55;6.63;;;4.70;;
69779;SDS011;57052;55.602;38.096;2022-07-24T08:52:23;6.97;;;4.63;;
69779;SDS011;57052;55.602;38.096;2022-07-24T08:54:49;5.50;;;4.63;;
69779;SDS011;57052;55.602;38.096;2022-07-24T08:57:15;6.43;;;4.63;;
69779;SDS011;57052;55.602;38.096;2022-07-24T08:59:41;6.03;;;4.60;;
69779;SDS011;57052;55.602;38.096;2022-07-24T09:02:07;6.13;;;4.80;;
69779;SDS011;57052;55.602;38.096;2022-07-24T09:04:37;6.85;;;4.75;;
69779;SDS011;57052;55.602;38.096;2022-07-24T09:07:12;6.15;;;4.80;;
69779;SDS011;57052;55.602;38.096;2022-07-24T09:09:39;6.25;;;4.55;;
69779;SDS011;57052;55.602;38.096;2022-07-24T09:14:40;4.88;;;4.22;;
69779;SDS011;57052;55.602;38.096;2022-07-24T09:17:12;7.05;;;4.50;;
69779;SDS011;57052;55.602;38.096;2022-07-24T09:19:45;5.53;;;4.30;;
69779;SDS011;57052;55.602;38.096;2022-07-24T09:25:02;4.22;;;3.50;;
69779;SDS011;57052;55.602;38.096;2022-07-24T09:27:31;6.30;;;4.25;;
69779;SDS011;57052;55.602;38.096;2022-07-24T09:29:57;5.05;;;4.07;;
69779;SDS011;57052;55.602;38.096;2022-07-24T09:32:23;5.85;;;3.97;;
69779;SDS011;57052;55.602;38.096;2022-07-24T09:34:53;6.43;;;4.22;;
69779;SDS011;57052;55.602;38.096;2022-07-24T09:37:19;5.05;;;3.80;;
69779;SDS011;57052;55.602;38.096;2022-07-24T09:39:46;4.82;;;3.78;;
69779;SDS011;57052;55.602;38.096;2022-07-24T09:42:12;5.15;;;3.90;;
69779;SDS011;57052;55.602;38.096;2022-07-24T09:44:38;5.32;;;3.90;;
69779;SDS011;57052;55.602;38.096;2022-07-24T09:47:05;5.53;;;4.03;;
69779;SDS011;57052;55.602;38.096;2022-07-24T09:49:33;5.82;;;3.97;;
69779;SDS011;57052;55.602;38.096;2022-07-24T09:54:31;5.40;;;3.80;;
69779;SDS011;57052;55.602;38.096;2022-07-24T09:57:15;6.20;;;4.05;;
69779;SDS011;57052;55.602;38.096;2022-07-24T09:59:52;6.57;;;3.63;;
69779;SDS011;57052;55.602;38.096;2022-07-24T10:02:22;5.63;;;3.92;;
69779;SDS011;57052;55.602;38.096;2022-07-24T10:04:52;6.68;;;3.65;;
69779;SDS011;57052;55.602;38.096;2022-07-24T10:07:20;5.13;;;4.03;;
69779;SDS011;57052;55.602;38.096;2022-07-24T10:09:48;5.07;;;3.80;;
69779;SDS011;57052;55.602;38.096;2022-07-24T10:12:16;5.82;;;3.58;;
69779;SDS011;57052;55.602;38.096;2022-07-24T10:14:51;9.10;;;4.10;;
69779;SDS011;57052;55.602;38.096;2022-07-24T10:17:18;4.55;;;3.80;;
69779;SDS011;57052;55.602;38.096;2022-07-24T10:19:45;6.22;;;3.90;;
69779;SDS011;57052;55.602;38.096;2022-07-24T10:22:19;5.22;;;3.83;;
69779;SDS011;57052;55.602;38.096;2022-07-24T10:24:54;6.05;;;3.90;;
69779;SDS011;57052;55.602;38.096;2022-07-24T10:27:24;4.30;;;3.72;;
69779;SDS011;57052;55.602;38.096;2022-07-24T10:29:52;5.25;;;3.70;;
69779;SDS011;57052;55.602;38.096;2022-07-24T10:32:20;5.32;;;4.00;;
69779;SDS011;57052;55.602;38.096;2022-07-24T10:38:00;7.10;;;3.88;;
69779;SDS011;57052;55.602;38.096;2022-07-24T10:40:33;5.32;;;3.50;;
69779;SDS011;57052;55.602;38.096;2022-07-24T10:53:23;5.80;;;3.40;;
69779;SDS011;57052;55.602;38.096;2022-07-24T10:55:49;5.38;;;3.40;;
69779;SDS011;57052;55.602;38.096;2022-07-24T10:58:15;6.75;;;3.40;;
69779;SDS011;57052;55.602;38.096;2022-07-24T11:00:45;4.07;;;3.60;;
69779;SDS011;57052;55.602;38.096;2022-07-24T11:03:26;4.60;;;3.67;;
69779;SDS011;57052;55.602;38.096;2022-07-24T11:06:02;5.40;;;3.30;;
69779;SDS011;57052;55.602;38.096;2022-07-24T11:11:12;4.40;;;3.53;;
69779;SDS011;57052;55.602;38.096;2022-07-24T11:13:42;5.70;;;3.65;;
69779;SDS011;57052;55.602;38.096;2022-07-24T11:16:16;9.90;;;3.97;;
69779;SDS011;57052;55.602;38.096;2022-07-24T11:21:12;6.20;;;4.20;;
69779;SDS011;57052;55.602;38.096;2022-07-24T11:29:18;5.07;;;3.58;;
69779;SDS011;57052;55.602;38.096;2022-07-24T11:34:24;5.50;;;3.28;;
69779;SDS011;57052;55.602;38.096;2022-07-24T11:36:51;5.40;;;3.20;;
69779;SDS011;57052;55.602;38.096;2022-07-24T11:39:18;4.20;;;3.10;;
69779;SDS011;57052;55.602;38.096;2022-07-24T11:41:46;4.72;;;3.45;;
69779;SDS011;57052;55.602;38.096;2022-07-24T11:44:13;3.95;;;3.03;;
69779;SDS011;57052;55.602;38.096;2022-07-24T11:46:54;4.53;;;3.20;;
69779;SDS011;57052;55.602;38.096;2022-07-24T11:49:22;4.57;;;2.95;;
69779;SDS011;57052;55.602;38.096;2022-07-24T11:51:50;3.53;;;2.80;;
69779;SDS011;57052;55.602;38.096;2022-07-24T11:54:24;4.97;;;3.10;;
69779;SDS011;57052;55.602;38.096;2022-07-24T11:56:52;5.47;;;3.10;;
69779;SDS011;57052;55.602;38.096;2022-07-24T11:59:26;4.28;;;2.88;;
69779;SDS011;57052;55.602;38.096;2022-07-24T12:02:04;4.10;;;3.10;;
69779;SDS011;57052;55.602;38.096;2022-07-24T12:04:32;3.45;;;3.15;;
69779;SDS011;57052;55.602;38.096;2022-07-24T12:06:58;3.88;;;2.97;;
69779;SDS011;57052;55.602;38.096;2022-07-24T12:09:25;5.20;;;2.88;;
69779;SDS011;57052;55.602;38.096;2022-07-24T12:11:50;3.92;;;3.25;;
69779;SDS011;57052;55.602;38.096;2022-07-24T12:14:18;4.15;;;3.25;;
69779;SDS011;57052;55.602;38.096;2022-07-24T12:16:54;5.80;;;3.28;;
69779;SDS011;57052;55.602;38.096;2022-07-24T12:19:22;4.55;;;3.22;;
69779;SDS011;57052;55.602;38.096;2022-07-24T12:21:50;4.80;;;3.53;;
69779;SDS011;57052;55.602;38.096;2022-07-24T12:24:18;5.07;;;2.90;;
69779;SDS011;57052;55.602;38.096;2022-07-24T12:26:58;4.53;;;3.35;;
69779;SDS011;57052;55.602;38.096;2022-07-24T12:29:25;3.83;;;2.90;;
69779;SDS011;57052;55.602;38.096;2022-07-24T12:31:53;5.18;;;3.50;;
69779;SDS011;57052;55.602;38.096;2022-07-24T12:34:44;5.22;;;3.00;;
69779;SDS011;57052;55.602;38.096;2022-07-24T12:37:17;4.35;;;2.70;;
69779;SDS011;57052;55.602;38.096;2022-07-24T12:39:48;5.05;;;3.10;;
69779;SDS011;57052;55.602;38.096;2022-07-24T12:42:14;3.38;;;2.90;;
69779;SDS011;57052;55.602;38.096;2022-07-24T12:44:44;3.40;;;2.92;;
69779;SDS011;57052;55.602;38.096;2022-07-24T12:47:11;4.82;;;3.10;;
69779;SDS011;57052;55.602;38.096;2022-07-24T12:49:44;3.78;;;2.72;;
69779;SDS011;57052;55.602;38.096;2022-07-24T12:52:23;3.55;;;3.00;;
69779;SDS011;57052;55.602;38.096;2022-07-24T12:54:50;6.18;;;3.22;;
69779;SDS011;57052;55.602;38.096;2022-07-24T12:57:19;5.05;;;3.10;;
69779;SDS011;57052;55.602;38.096;2022-07-24T12:59:47;3.72;;;3.10;;
69779;SDS011;57052;55.602;38.096;2022-07-24T13:02:21;8.38;;;3.00;;
69779;SDS011;57052;55.602;38.096;2022-07-24T13:04:52;4.78;;;2.90;;
69779;SDS011;57052;55.602;38.096;2022-07-24T13:07:23;4.25;;;2.92;;
69779;SDS011;57052;55.602;38.096;2022-07-24T13:09:50;7.38;;;3.25;;
69779;SDS011;57052;55.602;38.096;2022-07-24T13:12:17;4.82;;;3.40;;
69779;SDS011;57052;55.602;38.096;2022-07-24T13:14:43;4.43;;;3.17;;
69779;SDS011;57052;55.602;38.096;2022-07-24T13:17:17;4.85;;;2.97;;
69779;SDS011;57052;55.602;38.096;2022-07-24T13:19:47;4.18;;;3.13;;
69779;SDS011;57052;55.602;38.096;2022-07-24T13:22:15;3.78;;;3.25;;
69779;SDS011;57052;55.602;38.096;2022-07-24T13:24:41;6.25;;;3.08;;
69779;SDS011;57052;55.602;38.096;2022-07-24T13:27:08;8.20;;;3.60;;
69779;SDS011;57052;55.602;38.096;2022-07-24T13:29:35;5.78;;;3.40;;
69779;SDS011;57052;55.602;38.096;2022-07-24T13:32:02;3.63;;;3.28;;
69779;SDS011;57052;55.602;38.096;2022-07-24T13:34:28;6.18;;;4.15;;
69779;SDS011;57052;55.602;38.096;2022-07-24T13:36:54;4.55;;;3.58;;
69779;SDS011;57052;55.602;38.096;2022-07-24T13:39:20;4.35;;;3.90;;
69779;SDS011;57052;55.602;38.096;2022-07-24T13:41:47;6.20;;;4.00;;
69779;SDS011;57052;55.602;38.096;2022-07-24T13:44:13;4.65;;;3.55;;
69779;SDS011;57052;55.602;38.096;2022-07-24T13:46:39;5.00;;;3.70;;
69779;SDS011;57052;55.602;38.096;2022-07-24T13:49:05;4.53;;;3.60;;
69779;SDS011;57052;55.602;38.096;2022-07-24T13:51:32;5.28;;;3.97;;
69779;SDS011;57052;55.602;38.096;2022-07-24T13:53:57;4.60;;;3.97;;
69779;SDS011;57052;55.602;38.096;2022-07-24T13:56:24;6.32;;;3.40;;
69779;SDS011;57052;55.602;38.096;2022-07-24T13:58:50;4.63;;;3.70;;
69779;SDS011;57052;55.602;38.096;2022-07-24T14:01:16;8.35;;;3.70;;
69779;SDS011;57052;55.602;38.096;2022-07-24T14:03:43;6.80;;;3.70;;
69779;SDS011;57052;55.602;38.096;2022-07-24T14:06:09;6.00;;;3.72;;
69779;SDS011;57052;55.602;38.096;2022-07-24T14:08:35;4.22;;;3.47;;
69779;SDS011;57052;55.602;38.096;2022-07-24T14:11:02;6.35;;;3.72;;
69779;SDS011;57052;55.602;38.096;2022-07-24T14:13:28;5.35;;;3.65;;
69779;SDS011;57052;55.602;38.096;2022-07-24T14:15:53;5.35;;;3.60;;
69779;SDS011;57052;55.602;38.096;2022-07-24T14:18:19;7.50;;;3.85;;
69779;SDS011;57052;55.602;38.096;2022-07-24T14:20:45;4.63;;;3.80;;
69779;SDS011;57052;55.602;38.096;2022-07-24T14:23:11;5.78;;;3.50;;
69779;SDS011;57052;55.602;38.096;2022-07-24T14:25:37;4.78;;;3.67;;
69779;SDS011;57052;55.602;38.096;2022-07-24T14:28:08;4.32;;;3.55;;
69779;SDS011;57052;55.602;38.096;2022-07-24T14:30:34;4.18;;;3.45;;
69779;SDS011;57052;55.602;38.096;2022-07-24T14:32:59;7.03;;;3.90;;
69779;SDS011;57052;55.602;38.096;2022-07-24T14:35:25;7.82;;;3.50;;
69779;SDS011;57052;55.602;38.096;2022-07-24T14:37:52;4.80;;;3.60;;
69779;SDS011;57052;55.602;38.096;2022-07-24T14:40:18;4.43;;;3.53;;
69779;SDS011;57052;55.602;38.096;2022-07-24T14:42:44;6.05;;;3.67;;
69779;SDS011;57052;55.602;38.096;2022-07-24T14:45:09;5.68;;;4.28;;
69779;SDS011;57052;55.602;38.096;2022-07-24T14:47:35;9.00;;;3.92;;
69779;SDS011;57052;55.602;38.096;2022-07-24T14:50:04;4.82;;;3.42;;
69779;SDS011;57052;55.602;38.096;2022-07-24T14:52:31;7.68;;;3.92;;
69779;SDS011;57052;55.602;38.096;2022-07-24T14:54:56;8.00;;;4.47;;